sensor_id;sensor_type;location;lat;lon;timestamp;P1;durP1;ratioP1;P2;durP2;ratioP2
53545;SDS011;39432;51.902;10.844;2023-04-24T00:01:37;2.17;;;1.00;;
53545;SDS011;39432;51.902;10.844;2023-04-24T00:04:09;1.20;;;0.70;;
53545;SDS011;39432;51.902;10.844;2023-04-24T00:06:43;10.32;;;1.17;;
53545;SDS011;39432;51.902;10.844;2023-04-24T00:09:16;2.00;;;0.90;;
53545;SDS011;39432;51.902;10.844;2023-04-24T00:11:45;2.63;;;1.00;;
53545;SDS011;39432;51.902;10.844;2023-04-24T00:14:18;1.50;;;0.70;;
53545;SDS011;39432;51.902;10.844;2023-04-24T00:16:47;2.00;;;0.70;;
53545;SDS011;39432;51.902;10.844;2023-04-24T00:19:17;1.63;;;0.90;;
53545;SDS011;39432;51.902;10.844;2023-04-24T00:21:47;1.50;;;0.90;;
53545;SDS011;39432;51.902;10.844;2023-04-24T00:24:18;1.40;;;0.70;;
53545;SDS011;39432;51.902;10.844;2023-04-24T00:26:48;1.90;;;0.80;;
53545;SDS011;39432;51.902;10.844;2023-04-24T00:29:21;0.90;;;0.70;;
53545;SDS011;39432;51.902;10.844;2023-04-24T00:31:51;1.35;;;0.68;;
53545;SDS011;39432;51.902;10.844;2023-04-24T00:34:20;1.83;;;0.55;;
53545;SDS011;39432;51.902;10.844;2023-04-24T00:36:50;1.30;;;0.70;;
53545;SDS011;39432;51.902;10.844;2023-04-24T00:39:20;1.08;;;0.60;;
53545;SDS011;39432;51.902;10.844;2023-04-24T00:41:50;1.50;;;0.90;;
53545;SDS011;39432;51.902;10.844;2023-04-24T00:44:23;1.85;;;0.73;;
53545;SDS011;39432;51.902;10.844;2023-04-24T00:46:53;1.27;;;0.77;;
53545;SDS011;39432;51.902;10.844;2023-04-24T00:49:24;1.98;;;0.70;;
53545;SDS011;39432;51.902;10.844;2023-04-24T00:51:54;2.45;;;0.98;;
53545;SDS011;39432;51.902;10.844;2023-04-24T00:54:26;1.85;;;0.80;;
53545;SDS011;39432;51.902;10.844;2023-04-24T00:56:55;0.73;;;0.50;;
53545;SDS011;39432;51.902;10.844;2023-04-24T00:59:28;0.85;;;0.60;;
53545;SDS011;39432;51.902;10.844;2023-04-24T01:01:58;0.98;;;0.60;;
53545;SDS011;39432;51.902;10.844;2023-04-24T01:04:27;1.38;;;0.70;;
53545;SDS011;39432;51.902;10.844;2023-04-24T01:06:58;1.83;;;0.98;;
53545;SDS011;39432;51.902;10.844;2023-04-24T01:09:28;1.67;;;0.90;;
53545;SDS011;39432;51.902;10.844;2023-04-24T01:11:58;1.60;;;0.80;;
53545;SDS011;39432;51.902;10.844;2023-04-24T01:14:31;3.88;;;0.90;;
53545;SDS011;39432;51.902;10.844;2023-04-24T01:17:01;1.65;;;0.90;;
53545;SDS011;39432;51.902;10.844;2023-04-24T01:19:31;2.25;;;1.10;;
53545;SDS011;39432;51.902;10.844;2023-04-24T01:22:03;3.25;;;1.10;;
53545;SDS011;39432;51.902;10.844;2023-04-24T01:24:40;2.17;;;0.90;;
53545;SDS011;39432;51.902;10.844;2023-04-24T01:27:11;1.27;;;0.77;;
53545;SDS011;39432;51.902;10.844;2023-04-24T01:29:44;4.30;;;0.98;;
53545;SDS011;39432;51.902;10.844;2023-04-24T01:32:15;1.40;;;0.80;;
53545;SDS011;39432;51.902;10.844;2023-04-24T01:34:46;2.05;;;0.80;;
53545;SDS011;39432;51.902;10.844;2023-04-24T01:37:19;2.00;;;0.80;;
53545;SDS011;39432;51.902;10.844;2023-04-24T01:39:48;2.83;;;1.10;;
53545;SDS011;39432;51.902;10.844;2023-04-24T01:42:18;1.67;;;0.95;;
53545;SDS011;39432;51.902;10.844;2023-04-24T01:44:48;1.85;;;0.73;;
53545;SDS011;39432;51.902;10.844;2023-04-24T01:47:18;1.70;;;0.85;;
53545;SDS011;39432;51.902;10.844;2023-04-24T01:49:50;1.95;;;0.80;;
53545;SDS011;39432;51.902;10.844;2023-04-24T01:52:22;1.20;;;0.75;;
53545;SDS011;39432;51.902;10.844;2023-04-24T01:54:53;1.25;;;0.70;;
53545;SDS011;39432;51.902;10.844;2023-04-24T01:57:23;1.52;;;0.80;;
53545;SDS011;39432;51.902;10.844;2023-04-24T01:59:53;1.40;;;0.60;;
53545;SDS011;39432;51.902;10.844;2023-04-24T02:02:23;0.98;;;0.70;;
53545;SDS011;39432;51.902;10.844;2023-04-24T02:04:56;1.73;;;0.80;;
53545;SDS011;39432;51.902;10.844;2023-04-24T02:07:29;1.08;;;0.68;;
53545;SDS011;39432;51.902;10.844;2023-04-24T02:09:59;1.25;;;0.70;;
53545;SDS011;39432;51.902;10.844;2023-04-24T02:12:31;3.05;;;0.75;;
53545;SDS011;39432;51.902;10.844;2023-04-24T02:15:02;1.90;;;0.80;;
53545;SDS011;39432;51.902;10.844;2023-04-24T02:17:32;0.95;;;0.52;;
53545;SDS011;39432;51.902;10.844;2023-04-24T02:20:03;0.77;;;0.50;;
53545;SDS011;39432;51.902;10.844;2023-04-24T02:22:36;1.40;;;0.65;;
53545;SDS011;39432;51.902;10.844;2023-04-24T02:25:06;1.45;;;0.63;;
53545;SDS011;39432;51.902;10.844;2023-04-24T02:27:37;1.83;;;0.60;;
53545;SDS011;39432;51.902;10.844;2023-04-24T02:30:07;1.27;;;0.60;;
53545;SDS011;39432;51.902;10.844;2023-04-24T02:32:38;2.08;;;0.60;;
53545;SDS011;39432;51.902;10.844;2023-04-24T02:35:10;0.75;;;0.50;;
53545;SDS011;39432;51.902;10.844;2023-04-24T02:37:42;1.38;;;0.63;;
53545;SDS011;39432;51.902;10.844;2023-04-24T02:40:12;2.15;;;0.50;;
53545;SDS011;39432;51.902;10.844;2023-04-24T02:42:42;1.60;;;0.60;;
53545;SDS011;39432;51.902;10.844;2023-04-24T02:45:12;1.08;;;0.55;;
53545;SDS011;39432;51.902;10.844;2023-04-24T02:47:42;0.60;;;0.40;;
53545;SDS011;39432;51.902;10.844;2023-04-24T02:50:12;2.92;;;0.40;;
53545;SDS011;39432;51.902;10.844;2023-04-24T02:52:44;0.95;;;0.40;;
53545;SDS011;39432;51.902;10.844;2023-04-24T02:55:14;5.50;;;0.60;;
53545;SDS011;39432;51.902;10.844;2023-04-24T02:57:44;0.93;;;0.40;;
53545;SDS011;39432;51.902;10.844;2023-04-24T03:00:14;2.53;;;0.50;;
53545;SDS011;39432;51.902;10.844;2023-04-24T03:02:44;1.95;;;0.70;;
53545;SDS011;39432;51.902;10.844;2023-04-24T03:05:16;0.82;;;0.40;;
53545;SDS011;39432;51.902;10.844;2023-04-24T03:07:48;3.00;;;0.52;;
53545;SDS011;39432;51.902;10.844;2023-04-24T03:10:20;5.68;;;0.68;;
53545;SDS011;39432;51.902;10.844;2023-04-24T03:12:51;2.90;;;0.52;;
53545;SDS011;39432;51.902;10.844;2023-04-24T03:15:21;1.35;;;0.60;;
53545;SDS011;39432;51.902;10.844;2023-04-24T03:17:51;1.25;;;0.40;;
53545;SDS011;39432;51.902;10.844;2023-04-24T03:20:22;13.85;;;0.82;;
53545;SDS011;39432;51.902;10.844;2023-04-24T03:22:56;1.55;;;0.35;;
53545;SDS011;39432;51.902;10.844;2023-04-24T03:25:26;2.22;;;0.73;;
53545;SDS011;39432;51.902;10.844;2023-04-24T03:27:56;1.45;;;0.80;;
53545;SDS011;39432;51.902;10.844;2023-04-24T03:30:37;3.33;;;0.70;;
53545;SDS011;39432;51.902;10.844;2023-04-24T03:33:08;1.10;;;0.60;;
53545;SDS011;39432;51.902;10.844;2023-04-24T03:35:46;3.50;;;0.70;;
53545;SDS011;39432;51.902;10.844;2023-04-24T03:38:19;1.98;;;0.47;;
53545;SDS011;39432;51.902;10.844;2023-04-24T03:41:15;0.70;;;0.32;;
53545;SDS011;39432;51.902;10.844;2023-04-24T03:43:52;1.42;;;0.60;;
53545;SDS011;39432;51.902;10.844;2023-04-24T03:46:22;1.05;;;0.55;;
53545;SDS011;39432;51.902;10.844;2023-04-24T03:48:57;1.67;;;0.73;;
53545;SDS011;39432;51.902;10.844;2023-04-24T03:51:31;1.50;;;0.50;;
53545;SDS011;39432;51.902;10.844;2023-04-24T03:54:21;2.28;;;0.60;;
53545;SDS011;39432;51.902;10.844;2023-04-24T03:56:52;1.65;;;0.68;;
53545;SDS011;39432;51.902;10.844;2023-04-24T03:59:23;2.28;;;0.65;;
53545;SDS011;39432;51.902;10.844;2023-04-24T04:02:09;1.40;;;0.43;;
53545;SDS011;39432;51.902;10.844;2023-04-24T04:04:39;0.77;;;0.45;;
53545;SDS011;39432;51.902;10.844;2023-04-24T04:07:09;3.67;;;0.65;;
53545;SDS011;39432;51.902;10.844;2023-04-24T04:09:42;1.08;;;0.40;;
53545;SDS011;39432;51.902;10.844;2023-04-24T04:12:12;3.17;;;0.50;;
53545;SDS011;39432;51.902;10.844;2023-04-24T04:14:42;6.07;;;0.73;;
53545;SDS011;39432;51.902;10.844;2023-04-24T04:17:12;2.58;;;0.70;;
53545;SDS011;39432;51.902;10.844;2023-04-24T04:19:42;5.80;;;1.60;;
53545;SDS011;39432;51.902;10.844;2023-04-24T04:22:12;3.88;;;0.70;;
53545;SDS011;39432;51.902;10.844;2023-04-24T04:24:48;6.60;;;1.15;;
53545;SDS011;39432;51.902;10.844;2023-04-24T04:27:21;1.85;;;0.50;;
53545;SDS011;39432;51.902;10.844;2023-04-24T04:30:00;2.53;;;1.02;;
53545;SDS011;39432;51.902;10.844;2023-04-24T04:32:39;2.33;;;0.73;;
53545;SDS011;39432;51.902;10.844;2023-04-24T04:35:08;2.40;;;0.88;;
53545;SDS011;39432;51.902;10.844;2023-04-24T04:37:38;1.20;;;0.50;;
53545;SDS011;39432;51.902;10.844;2023-04-24T04:42:56;5.68;;;0.70;;
53545;SDS011;39432;51.902;10.844;2023-04-24T04:45:29;3.80;;;0.90;;
53545;SDS011;39432;51.902;10.844;2023-04-24T04:48:20;4.43;;;0.82;;
53545;SDS011;39432;51.902;10.844;2023-04-24T04:50:50;1.77;;;0.70;;
53545;SDS011;39432;51.902;10.844;2023-04-24T04:53:21;2.05;;;0.70;;
53545;SDS011;39432;51.902;10.844;2023-04-24T04:55:54;2.95;;;0.90;;
53545;SDS011;39432;51.902;10.844;2023-04-24T04:58:31;2.42;;;0.77;;
53545;SDS011;39432;51.902;10.844;2023-04-24T05:01:01;1.90;;;0.88;;
53545;SDS011;39432;51.902;10.844;2023-04-24T05:03:36;1.50;;;0.65;;
53545;SDS011;39432;51.902;10.844;2023-04-24T05:06:09;1.85;;;0.90;;
53545;SDS011;39432;51.902;10.844;2023-04-24T05:08:39;18.40;;;1.95;;
53545;SDS011;39432;51.902;10.844;2023-04-24T05:11:21;2.05;;;0.80;;
53545;SDS011;39432;51.902;10.844;2023-04-24T05:13:51;7.63;;;0.90;;
53545;SDS011;39432;51.902;10.844;2023-04-24T05:16:28;2.50;;;0.82;;
53545;SDS011;39432;51.902;10.844;2023-04-24T05:18:58;2.97;;;0.90;;
53545;SDS011;39432;51.902;10.844;2023-04-24T05:21:33;3.63;;;0.70;;
53545;SDS011;39432;51.902;10.844;2023-04-24T05:24:03;4.18;;;0.90;;
53545;SDS011;39432;51.902;10.844;2023-04-24T05:26:51;4.80;;;0.80;;
53545;SDS011;39432;51.902;10.844;2023-04-24T05:29:27;2.55;;;0.68;;
53545;SDS011;39432;51.902;10.844;2023-04-24T05:31:57;10.07;;;1.10;;
53545;SDS011;39432;51.902;10.844;2023-04-24T05:34:29;3.30;;;0.95;;
53545;SDS011;39432;51.902;10.844;2023-04-24T05:36:59;1.77;;;0.77;;
53545;SDS011;39432;51.902;10.844;2023-04-24T05:39:28;3.88;;;0.82;;
53545;SDS011;39432;51.902;10.844;2023-04-24T05:42:01;2.08;;;0.80;;
53545;SDS011;39432;51.902;10.844;2023-04-24T05:44:32;4.55;;;1.20;;
53545;SDS011;39432;51.902;10.844;2023-04-24T05:47:02;4.47;;;1.10;;
53545;SDS011;39432;51.902;10.844;2023-04-24T05:49:32;3.55;;;0.98;;
53545;SDS011;39432;51.902;10.844;2023-04-24T05:52:02;1.33;;;0.80;;
53545;SDS011;39432;51.902;10.844;2023-04-24T05:54:36;2.53;;;1.00;;
53545;SDS011;39432;51.902;10.844;2023-04-24T05:57:09;2.90;;;1.50;;
53545;SDS011;39432;51.902;10.844;2023-04-24T05:59:50;3.00;;;0.80;;
53545;SDS011;39432;51.902;10.844;2023-04-24T06:02:21;3.15;;;0.98;;
53545;SDS011;39432;51.902;10.844;2023-04-24T06:04:51;5.07;;;1.33;;
53545;SDS011;39432;51.902;10.844;2023-04-24T06:07:23;2.28;;;0.90;;
53545;SDS011;39432;51.902;10.844;2023-04-24T06:09:53;5.63;;;1.35;;
53545;SDS011;39432;51.902;10.844;2023-04-24T06:12:26;15.18;;;1.77;;
53545;SDS011;39432;51.902;10.844;2023-04-24T06:15:01;7.13;;;1.08;;
53545;SDS011;39432;51.902;10.844;2023-04-24T06:18:03;2.53;;;1.52;;
53545;SDS011;39432;51.902;10.844;2023-04-24T06:20:38;1.20;;;0.60;;
53545;SDS011;39432;51.902;10.844;2023-04-24T06:23:09;3.75;;;0.80;;
53545;SDS011;39432;51.902;10.844;2023-04-24T06:25:38;4.68;;;0.85;;
53545;SDS011;39432;51.902;10.844;2023-04-24T06:28:13;2.20;;;0.90;;
53545;SDS011;39432;51.902;10.844;2023-04-24T06:30:43;2.10;;;1.35;;
53545;SDS011;39432;51.902;10.844;2023-04-24T06:33:12;1.92;;;0.85;;
53545;SDS011;39432;51.902;10.844;2023-04-24T06:35:47;1.58;;;0.63;;
53545;SDS011;39432;51.902;10.844;2023-04-24T06:38:17;1.85;;;0.80;;
53545;SDS011;39432;51.902;10.844;2023-04-24T06:40:47;3.17;;;0.80;;
53545;SDS011;39432;51.902;10.844;2023-04-24T06:43:19;2.90;;;0.75;;
53545;SDS011;39432;51.902;10.844;2023-04-24T06:45:49;3.10;;;0.85;;
53545;SDS011;39432;51.902;10.844;2023-04-24T06:48:19;1.35;;;0.60;;
53545;SDS011;39432;51.902;10.844;2023-04-24T06:50:49;1.60;;;0.60;;
53545;SDS011;39432;51.902;10.844;2023-04-24T06:53:18;1.83;;;0.70;;
53545;SDS011;39432;51.902;10.844;2023-04-24T06:55:48;8.70;;;1.00;;
53545;SDS011;39432;51.902;10.844;2023-04-24T06:58:21;2.42;;;0.65;;
53545;SDS011;39432;51.902;10.844;2023-04-24T07:00:50;0.90;;;0.55;;
53545;SDS011;39432;51.902;10.844;2023-04-24T07:03:20;3.42;;;0.55;;
53545;SDS011;39432;51.902;10.844;2023-04-24T07:05:50;1.80;;;0.50;;
53545;SDS011;39432;51.902;10.844;2023-04-24T07:08:20;3.95;;;0.60;;
53545;SDS011;39432;51.902;10.844;2023-04-24T07:10:50;1.00;;;0.57;;
53545;SDS011;39432;51.902;10.844;2023-04-24T07:13:23;4.40;;;0.50;;
53545;SDS011;39432;51.902;10.844;2023-04-24T07:15:53;3.95;;;0.60;;
53545;SDS011;39432;51.902;10.844;2023-04-24T07:18:23;0.80;;;0.40;;
53545;SDS011;39432;51.902;10.844;2023-04-24T07:20:53;1.27;;;0.50;;
53545;SDS011;39432;51.902;10.844;2023-04-24T07:23:23;1.02;;;0.50;;
53545;SDS011;39432;51.902;10.844;2023-04-24T07:25:52;7.40;;;0.68;;
53545;SDS011;39432;51.902;10.844;2023-04-24T07:28:25;3.45;;;0.47;;
53545;SDS011;39432;51.902;10.844;2023-04-24T07:30:57;1.47;;;0.60;;
53545;SDS011;39432;51.902;10.844;2023-04-24T07:33:27;3.17;;;0.90;;
53545;SDS011;39432;51.902;10.844;2023-04-24T07:35:57;2.28;;;0.63;;
53545;SDS011;39432;51.902;10.844;2023-04-24T07:38:28;2.80;;;0.50;;
53545;SDS011;39432;51.902;10.844;2023-04-24T07:40:58;0.50;;;0.38;;
53545;SDS011;39432;51.902;10.844;2023-04-24T07:43:31;1.90;;;0.57;;
53545;SDS011;39432;51.902;10.844;2023-04-24T07:46:00;3.22;;;0.50;;
53545;SDS011;39432;51.902;10.844;2023-04-24T07:48:34;3.40;;;0.80;;
53545;SDS011;39432;51.902;10.844;2023-04-24T07:51:04;3.75;;;1.20;;
53545;SDS011;39432;51.902;10.844;2023-04-24T07:53:36;2.42;;;0.73;;
53545;SDS011;39432;51.902;10.844;2023-04-24T07:56:06;1.08;;;0.70;;
53545;SDS011;39432;51.902;10.844;2023-04-24T07:58:38;2.13;;;0.80;;
53545;SDS011;39432;51.902;10.844;2023-04-24T08:01:08;9.38;;;1.10;;
53545;SDS011;39432;51.902;10.844;2023-04-24T08:03:39;2.60;;;1.00;;
53545;SDS011;39432;51.902;10.844;2023-04-24T08:06:09;2.92;;;0.80;;
53545;SDS011;39432;51.902;10.844;2023-04-24T08:08:39;3.17;;;0.90;;
53545;SDS011;39432;51.902;10.844;2023-04-24T08:11:08;3.05;;;0.77;;
53545;SDS011;39432;51.902;10.844;2023-04-24T08:13:41;1.55;;;0.73;;
53545;SDS011;39432;51.902;10.844;2023-04-24T08:16:11;3.08;;;0.70;;
53545;SDS011;39432;51.902;10.844;2023-04-24T08:18:41;2.55;;;0.68;;
53545;SDS011;39432;51.902;10.844;2023-04-24T08:21:11;2.42;;;0.70;;
53545;SDS011;39432;51.902;10.844;2023-04-24T08:23:44;4.00;;;0.70;;
53545;SDS011;39432;51.902;10.844;2023-04-24T08:26:13;3.97;;;0.90;;
53545;SDS011;39432;51.902;10.844;2023-04-24T08:28:46;2.80;;;0.85;;
53545;SDS011;39432;51.902;10.844;2023-04-24T08:31:16;1.30;;;0.80;;
53545;SDS011;39432;51.902;10.844;2023-04-24T08:33:45;1.23;;;0.55;;
53545;SDS011;39432;51.902;10.844;2023-04-24T08:36:15;7.18;;;1.58;;
53545;SDS011;39432;51.902;10.844;2023-04-24T08:38:45;4.25;;;1.08;;
53545;SDS011;39432;51.902;10.844;2023-04-24T08:41:15;1.75;;;0.77;;
53545;SDS011;39432;51.902;10.844;2023-04-24T08:43:50;1.35;;;0.80;;
53545;SDS011;39432;51.902;10.844;2023-04-24T08:46:21;2.22;;;0.77;;
53545;SDS011;39432;51.902;10.844;2023-04-24T08:48:52;1.35;;;0.77;;
53545;SDS011;39432;51.902;10.844;2023-04-24T08:51:21;1.35;;;0.73;;
53545;SDS011;39432;51.902;10.844;2023-04-24T08:53:52;1.25;;;0.80;;
53545;SDS011;39432;51.902;10.844;2023-04-24T08:56:24;8.07;;;1.73;;
53545;SDS011;39432;51.902;10.844;2023-04-24T08:58:56;2.00;;;0.88;;
53545;SDS011;39432;51.902;10.844;2023-04-24T09:01:27;12.77;;;1.50;;
53545;SDS011;39432;51.902;10.844;2023-04-24T09:03:58;1.80;;;1.15;;
53545;SDS011;39432;51.902;10.844;2023-04-24T09:06:32;14.65;;;2.22;;
53545;SDS011;39432;51.902;10.844;2023-04-24T09:09:02;8.75;;;2.13;;
53545;SDS011;39432;51.902;10.844;2023-04-24T09:11:32;5.00;;;1.48;;
53545;SDS011;39432;51.902;10.844;2023-04-24T09:14:04;3.30;;;1.30;;
53545;SDS011;39432;51.902;10.844;2023-04-24T09:16:34;2.65;;;1.23;;
53545;SDS011;39432;51.902;10.844;2023-04-24T09:19:04;2.85;;;1.15;;
53545;SDS011;39432;51.902;10.844;2023-04-24T09:21:35;2.05;;;1.08;;
53545;SDS011;39432;51.902;10.844;2023-04-24T09:24:05;4.65;;;1.40;;
53545;SDS011;39432;51.902;10.844;2023-04-24T09:26:36;3.00;;;1.30;;
53545;SDS011;39432;51.902;10.844;2023-04-24T09:29:13;5.10;;;1.35;;
53545;SDS011;39432;51.902;10.844;2023-04-24T09:31:44;2.70;;;1.20;;
53545;SDS011;39432;51.902;10.844;2023-04-24T09:34:18;2.22;;;0.93;;
53545;SDS011;39432;51.902;10.844;2023-04-24T09:36:54;1.52;;;0.93;;
53545;SDS011;39432;51.902;10.844;2023-04-24T09:39:24;4.05;;;0.73;;
53545;SDS011;39432;51.902;10.844;2023-04-24T09:41:54;2.50;;;0.80;;
53545;SDS011;39432;51.902;10.844;2023-04-24T09:44:28;4.18;;;1.33;;
53545;SDS011;39432;51.902;10.844;2023-04-24T09:46:58;4.80;;;0.93;;
53545;SDS011;39432;51.902;10.844;2023-04-24T09:49:29;1.75;;;0.95;;
53545;SDS011;39432;51.902;10.844;2023-04-24T09:52:03;1.00;;;0.80;;
53545;SDS011;39432;51.902;10.844;2023-04-24T09:54:33;2.25;;;0.77;;
53545;SDS011;39432;51.902;10.844;2023-04-24T09:57:04;2.72;;;1.00;;
53545;SDS011;39432;51.902;10.844;2023-04-24T09:59:38;3.78;;;0.85;;
53545;SDS011;39432;51.902;10.844;2023-04-24T10:02:16;3.45;;;0.90;;
53545;SDS011;39432;51.902;10.844;2023-04-24T10:07:25;3.60;;;1.17;;
53545;SDS011;39432;51.902;10.844;2023-04-24T10:09:55;2.25;;;1.25;;
53545;SDS011;39432;51.902;10.844;2023-04-24T10:12:25;2.90;;;1.05;;
53545;SDS011;39432;51.902;10.844;2023-04-24T10:14:59;3.03;;;1.30;;
53545;SDS011;39432;51.902;10.844;2023-04-24T10:17:29;3.28;;;1.10;;
53545;SDS011;39432;51.902;10.844;2023-04-24T10:19:59;2.63;;;1.30;;
53545;SDS011;39432;51.902;10.844;2023-04-24T10:22:30;4.97;;;1.63;;
53545;SDS011;39432;51.902;10.844;2023-04-24T10:25:00;4.78;;;1.13;;
53545;SDS011;39432;51.902;10.844;2023-04-24T10:27:32;3.10;;;1.42;;
53545;SDS011;39432;51.902;10.844;2023-04-24T10:30:07;1.92;;;0.98;;
53545;SDS011;39432;51.902;10.844;2023-04-24T10:32:38;2.60;;;0.90;;
53545;SDS011;39432;51.902;10.844;2023-04-24T10:35:08;2.17;;;1.13;;
53545;SDS011;39432;51.902;10.844;2023-04-24T10:37:39;3.67;;;1.10;;
53545;SDS011;39432;51.902;10.844;2023-04-24T10:40:11;6.90;;;1.20;;
53545;SDS011;39432;51.902;10.844;2023-04-24T10:42:47;3.28;;;1.10;;
53545;SDS011;39432;51.902;10.844;2023-04-24T10:45:20;2.63;;;1.10;;
53545;SDS011;39432;51.902;10.844;2023-04-24T10:47:52;1.95;;;1.00;;
53545;SDS011;39432;51.902;10.844;2023-04-24T10:50:23;6.32;;;1.55;;
53545;SDS011;39432;51.902;10.844;2023-04-24T10:52:55;4.97;;;1.20;;
53545;SDS011;39432;51.902;10.844;2023-04-24T10:55:41;7.55;;;1.70;;
53545;SDS011;39432;51.902;10.844;2023-04-24T10:58:13;3.53;;;1.27;;
53545;SDS011;39432;51.902;10.844;2023-04-24T11:00:48;3.00;;;1.10;;
53545;SDS011;39432;51.902;10.844;2023-04-24T11:03:27;2.13;;;0.95;;
53545;SDS011;39432;51.902;10.844;2023-04-24T11:05:59;1.85;;;0.93;;
53545;SDS011;39432;51.902;10.844;2023-04-24T11:08:31;3.05;;;1.00;;
53545;SDS011;39432;51.902;10.844;2023-04-24T11:11:09;3.45;;;1.00;;
53545;SDS011;39432;51.902;10.844;2023-04-24T11:16:34;0.93;;;0.63;;
53545;SDS011;39432;51.902;10.844;2023-04-24T11:19:08;3.53;;;1.30;;
53545;SDS011;39432;51.902;10.844;2023-04-24T11:21:40;3.45;;;1.00;;
53545;SDS011;39432;51.902;10.844;2023-04-24T11:24:24;7.03;;;1.42;;
53545;SDS011;39432;51.902;10.844;2023-04-24T11:26:55;1.48;;;0.77;;
53545;SDS011;39432;51.902;10.844;2023-04-24T11:29:38;3.40;;;1.48;;
53545;SDS011;39432;51.902;10.844;2023-04-24T11:32:18;2.97;;;1.17;;
53545;SDS011;39432;51.902;10.844;2023-04-24T11:34:54;4.78;;;1.90;;
53545;SDS011;39432;51.902;10.844;2023-04-24T11:37:26;3.95;;;1.10;;
53545;SDS011;39432;51.902;10.844;2023-04-24T11:39:57;7.13;;;1.70;;
53545;SDS011;39432;51.902;10.844;2023-04-24T11:42:29;9.77;;;1.73;;
53545;SDS011;39432;51.902;10.844;2023-04-24T11:45:07;8.15;;;1.50;;
53545;SDS011;39432;51.902;10.844;2023-04-24T11:47:40;11.60;;;1.75;;
53545;SDS011;39432;51.902;10.844;2023-04-24T11:50:12;2.78;;;1.40;;
53545;SDS011;39432;51.902;10.844;2023-04-24T11:52:44;12.98;;;2.53;;
53545;SDS011;39432;51.902;10.844;2023-04-24T11:55:25;5.10;;;1.58;;
53545;SDS011;39432;51.902;10.844;2023-04-24T11:57:57;7.43;;;1.45;;
53545;SDS011;39432;51.902;10.844;2023-04-24T12:00:28;3.03;;;1.30;;
53545;SDS011;39432;51.902;10.844;2023-04-24T12:03:07;6.20;;;1.48;;
53545;SDS011;39432;51.902;10.844;2023-04-24T12:05:39;3.65;;;1.25;;
53545;SDS011;39432;51.902;10.844;2023-04-24T12:08:10;2.40;;;1.00;;
53545;SDS011;39432;51.902;10.844;2023-04-24T12:10:40;3.67;;;1.27;;
53545;SDS011;39432;51.902;10.844;2023-04-24T12:13:10;8.23;;;2.03;;
53545;SDS011;39432;51.902;10.844;2023-04-24T12:15:40;3.33;;;0.90;;
53545;SDS011;39432;51.902;10.844;2023-04-24T12:18:14;6.22;;;1.00;;
53545;SDS011;39432;51.902;10.844;2023-04-24T12:20:44;2.67;;;1.13;;
53545;SDS011;39432;51.902;10.844;2023-04-24T12:23:13;3.30;;;1.02;;
53545;SDS011;39432;51.902;10.844;2023-04-24T12:25:44;3.65;;;0.90;;
53545;SDS011;39432;51.902;10.844;2023-04-24T12:28:14;2.13;;;0.80;;
53545;SDS011;39432;51.902;10.844;2023-04-24T12:30:44;2.70;;;1.00;;
53545;SDS011;39432;51.902;10.844;2023-04-24T12:33:20;1.95;;;1.13;;
53545;SDS011;39432;51.902;10.844;2023-04-24T12:35:51;4.30;;;1.10;;
53545;SDS011;39432;51.902;10.844;2023-04-24T12:38:22;1.90;;;0.73;;
53545;SDS011;39432;51.902;10.844;2023-04-24T12:41:01;1.98;;;0.90;;
53545;SDS011;39432;51.902;10.844;2023-04-24T12:43:32;2.72;;;0.93;;
53545;SDS011;39432;51.902;10.844;2023-04-24T12:46:02;1.80;;;0.88;;
53545;SDS011;39432;51.902;10.844;2023-04-24T12:48:35;5.15;;;1.10;;
53545;SDS011;39432;51.902;10.844;2023-04-24T12:51:05;2.00;;;1.20;;
53545;SDS011;39432;51.902;10.844;2023-04-24T12:53:35;1.90;;;0.90;;
53545;SDS011;39432;51.902;10.844;2023-04-24T12:56:06;2.22;;;1.10;;
53545;SDS011;39432;51.902;10.844;2023-04-24T12:58:36;1.40;;;0.80;;
53545;SDS011;39432;51.902;10.844;2023-04-24T13:01:06;1.10;;;0.60;;
53545;SDS011;39432;51.902;10.844;2023-04-24T13:03:39;0.90;;;0.68;;
53545;SDS011;39432;51.902;10.844;2023-04-24T13:06:10;2.05;;;0.80;;
53545;SDS011;39432;51.902;10.844;2023-04-24T13:08:39;1.70;;;0.60;;
53545;SDS011;39432;51.902;10.844;2023-04-24T13:11:09;3.20;;;0.90;;
53545;SDS011;39432;51.902;10.844;2023-04-24T13:13:39;2.03;;;0.80;;
53545;SDS011;39432;51.902;10.844;2023-04-24T13:16:09;1.30;;;0.70;;
53545;SDS011;39432;51.902;10.844;2023-04-24T13:18:41;2.08;;;0.60;;
53545;SDS011;39432;51.902;10.844;2023-04-24T13:21:11;1.33;;;0.57;;
53545;SDS011;39432;51.902;10.844;2023-04-24T13:23:41;1.95;;;0.57;;
53545;SDS011;39432;51.902;10.844;2023-04-24T13:26:11;1.10;;;0.57;;
53545;SDS011;39432;51.902;10.844;2023-04-24T13:28:41;2.15;;;1.05;;
53545;SDS011;39432;51.902;10.844;2023-04-24T13:31:10;1.52;;;0.70;;
53545;SDS011;39432;51.902;10.844;2023-04-24T13:33:43;2.15;;;0.75;;
53545;SDS011;39432;51.902;10.844;2023-04-24T13:36:12;0.95;;;0.63;;
53545;SDS011;39432;51.902;10.844;2023-04-24T13:38:43;4.28;;;0.95;;
53545;SDS011;39432;51.902;10.844;2023-04-24T13:41:13;4.15;;;0.60;;
53545;SDS011;39432;51.902;10.844;2023-04-24T13:43:43;2.05;;;0.60;;
53545;SDS011;39432;51.902;10.844;2023-04-24T13:46:12;5.20;;;0.43;;
53545;SDS011;39432;51.902;10.844;2023-04-24T13:48:45;3.65;;;0.80;;
53545;SDS011;39432;51.902;10.844;2023-04-24T13:51:15;3.42;;;0.57;;
53545;SDS011;39432;51.902;10.844;2023-04-24T13:53:44;0.55;;;0.40;;
53545;SDS011;39432;51.902;10.844;2023-04-24T13:56:14;1.48;;;0.40;;
53545;SDS011;39432;51.902;10.844;2023-04-24T13:58:44;0.60;;;0.50;;
53545;SDS011;39432;51.902;10.844;2023-04-24T14:01:14;0.40;;;0.40;;
53545;SDS011;39432;51.902;10.844;2023-04-24T14:03:46;5.38;;;0.57;;
53545;SDS011;39432;51.902;10.844;2023-04-24T14:06:17;3.55;;;0.50;;
53545;SDS011;39432;51.902;10.844;2023-04-24T14:08:46;5.05;;;0.50;;
53545;SDS011;39432;51.902;10.844;2023-04-24T14:11:17;3.20;;;0.40;;
53545;SDS011;39432;51.902;10.844;2023-04-24T14:13:47;1.23;;;0.32;;
53545;SDS011;39432;51.902;10.844;2023-04-24T14:16:17;0.40;;;0.20;;
53545;SDS011;39432;51.902;10.844;2023-04-24T14:18:49;1.75;;;0.30;;
53545;SDS011;39432;51.902;10.844;2023-04-24T14:21:19;2.40;;;0.63;;
53545;SDS011;39432;51.902;10.844;2023-04-24T14:23:49;0.47;;;0.20;;
53545;SDS011;39432;51.902;10.844;2023-04-24T14:26:19;0.85;;;0.30;;
53545;SDS011;39432;51.902;10.844;2023-04-24T14:28:49;1.73;;;0.30;;
53545;SDS011;39432;51.902;10.844;2023-04-24T14:31:29;1.40;;;0.30;;
53545;SDS011;39432;51.902;10.844;2023-04-24T14:34:01;0.75;;;0.38;;
53545;SDS011;39432;51.902;10.844;2023-04-24T14:36:31;2.05;;;0.30;;
53545;SDS011;39432;51.902;10.844;2023-04-24T14:39:01;0.77;;;0.47;;
53545;SDS011;39432;51.902;10.844;2023-04-24T14:41:33;0.93;;;0.38;;
53545;SDS011;39432;51.902;10.844;2023-04-24T14:44:03;2.90;;;0.30;;
53545;SDS011;39432;51.902;10.844;2023-04-24T14:46:33;3.13;;;0.40;;
53545;SDS011;39432;51.902;10.844;2023-04-24T14:49:05;0.20;;;0.20;;
53545;SDS011;39432;51.902;10.844;2023-04-24T14:51:36;0.20;;;0.20;;
53545;SDS011;39432;51.902;10.844;2023-04-24T14:54:07;1.50;;;0.28;;
53545;SDS011;39432;51.902;10.844;2023-04-24T14:56:37;0.43;;;0.20;;
53545;SDS011;39432;51.902;10.844;2023-04-24T14:59:07;1.05;;;0.30;;
53545;SDS011;39432;51.902;10.844;2023-04-24T15:01:37;8.90;;;0.40;;
53545;SDS011;39432;51.902;10.844;2023-04-24T15:04:09;2.03;;;0.30;;
53545;SDS011;39432;51.902;10.844;2023-04-24T15:06:39;0.30;;;0.30;;
53545;SDS011;39432;51.902;10.844;2023-04-24T15:09:09;0.65;;;0.30;;